Time;durP1;ratioP1;P1;durP2;ratioP2;P2;SDS_P1;SDS_P2;PMS_P1;PMS_P2;Temp;Humidity;BMP_temperature;BMP_pressure;BME280_temperature;BME280_humidity;BME280_pressure;Samples;Min_cycle;Max_cycle;Signal;HPM_P1;HPM_P2
2024/02/25 00:00:12;;;;;;;2.77;1.10;;;;;;;;;;700705;28;1567;-67
2024/02/25 00:00:32;;;;;;;2.78;1.10;;;;;;;;;;702524;27;4479;-65
2024/02/25 00:00:53;;;;;;;2.23;1.20;;;;;;;;;;704526;27;1252;-66
2024/02/25 00:01:13;;;;;;;2.47;1.20;;;;;;;;;;703997;27;1717;-66
2024/02/25 00:01:34;;;;;;;2.92;1.23;;;;;;;;;;705285;27;1289;-65
2024/02/25 00:01:54;;;;;;;3.37;1.37;;;;;;;;;;704658;28;1292;-64
2024/02/25 00:02:14;;;;;;;3.33;1.48;;;;;;;;;;702390;28;1981;-65
2024/02/25 00:02:35;;;;;;;3.10;1.30;;;;;;;;;;703092;27;1193;-65
2024/02/25 00:02:55;;;;;;;3.65;1.30;;;;;;;;;;703079;28;1137;-65
2024/02/25 00:03:16;;;;;;;2.83;1.10;;;;;;;;;;704800;27;1616;-65
2024/02/25 00:03:37;;;;;;;3.72;1.30;;;;;;;;;;703471;27;4331;-65
2024/02/25 00:03:57;;;;;;;4.65;1.70;;;;;;;;;;704985;27;1337;-65
2024/02/25 00:04:18;;;;;;;2.87;1.40;;;;;;;;;;703381;27;1834;-65
2024/02/25 00:04:38;;;;;;;2.85;1.30;;;;;;;;;;704437;27;1264;-64
2024/02/25 00:04:58;;;;;;;3.07;1.33;;;;;;;;;;705613;27;1269;-64
2024/02/25 00:05:18;;;;;;;3.60;1.37;;;;;;;;;;702844;27;1786;-64
2024/02/25 00:05:39;;;;;;;3.13;1.30;;;;;;;;;;704522;27;1427;-65
2024/02/25 00:06:00;;;;;;;2.88;1.27;;;;;;;;;;705082;27;1384;-67
2024/02/25 00:06:20;;;;;;;2.37;1.10;;;;;;;;;;702772;27;4316;-65
2024/02/25 00:06:44;;;;;;;2.70;1.10;;;;;;;;;;703590;27;1410;-66
2024/02/25 00:07:05;;;;;;;2.97;1.20;;;;;;;;;;704424;27;1308;-68
2024/02/25 00:07:25;;;;;;;3.43;1.30;;;;;;;;;;703391;27;1886;-65
2024/02/25 00:07:46;;;;;;;3.00;1.20;;;;;;;;;;704826;27;1200;-65
2024/02/25 00:08:06;;;;;;;2.80;1.35;;;;;;;;;;703783;27;1335;-66
2024/02/25 00:08:27;;;;;;;2.87;1.30;;;;;;;;;;704097;27;1818;-67
2024/02/25 00:08:47;;;;;;;2.60;1.30;;;;;;;;;;705364;27;1205;-65
2024/02/25 00:09:07;;;;;;;2.43;1.20;;;;;;;;;;705750;27;1288;-64
2024/02/25 00:09:27;;;;;;;2.70;1.20;;;;;;;;;;702377;27;4308;-64
2024/02/25 00:09:48;;;;;;;2.97;1.30;;;;;;;;;;704590;27;1292;-65
2024/02/25 00:10:08;;;;;;;2.33;1.38;;;;;;;;;;702481;28;1178;-65
2024/02/25 00:10:28;;;;;;;2.33;1.20;;;;;;;;;;703422;27;1135;-65
2024/02/25 00:10:49;;;;;;;3.17;1.33;;;;;;;;;;704087;27;1304;-63
2024/02/25 00:11:10;;;;;;;2.60;1.10;;;;;;;;;;704342;27;1208;-65
2024/02/25 00:11:30;;;;;;;2.70;1.30;;;;;;;;;;703412;27;1182;-64
2024/02/25 00:11:50;;;;;;;3.33;1.40;;;;;;;;;;703447;27;1115;-65
2024/02/25 00:12:11;;;;;;;4.07;1.37;;;;;;;;;;704782;27;1241;-66
2024/02/25 00:12:32;;;;;;;3.63;1.27;;;;;;;;;;702625;27;4490;-66
2024/02/25 00:12:52;;;;;;;2.65;1.25;;;;;;;;;;704758;27;1244;-66
2024/02/25 00:13:12;;;;;;;3.40;1.27;;;;;;;;;;699693;28;1316;-66
2024/02/25 00:13:33;;;;;;;3.30;1.23;;;;;;;;;;701646;28;1319;-65
2024/02/25 00:13:53;;;;;;;3.10;1.30;;;;;;;;;;700867;28;1202;-64
2024/02/25 00:14:13;;;;;;;2.07;1.10;;;;;;;;;;696951;28;1336;-66
2024/02/25 00:14:33;;;;;;;2.10;1.10;;;;;;;;;;699168;28;1218;-65
2024/02/25 00:14:54;;;;;;;3.00;1.20;;;;;;;;;;700152;28;1216;-65
2024/02/25 00:15:14;;;;;;;3.13;1.23;;;;;;;;;;697942;28;1087;-65
2024/02/25 00:15:34;;;;;;;3.43;1.27;;;;;;;;;;697332;28;4306;-65
2024/02/25 00:15:55;;;;;;;3.93;1.37;;;;;;;;;;698916;28;1245;-64
2024/02/25 00:16:15;;;;;;;4.18;1.40;;;;;;;;;;700031;28;1303;-63
2024/02/25 00:16:35;;;;;;;4.03;1.30;;;;;;;;;;702049;28;1284;-64
2024/02/25 00:16:55;;;;;;;3.07;1.30;;;;;;;;;;702373;28;1206;-64
2024/02/25 00:17:16;;;;;;;2.85;1.33;;;;;;;;;;701886;27;1358;-64
2024/02/25 00:17:36;;;;;;;2.90;1.33;;;;;;;;;;703787;28;1320;-64
2024/02/25 00:17:56;;;;;;;2.60;1.30;;;;;;;;;;701592;28;1328;-64
2024/02/25 00:18:17;;;;;;;2.97;1.40;;;;;;;;;;700915;28;1391;-65
2024/02/25 00:18:37;;;;;;;2.53;1.23;;;;;;;;;;700396;28;4491;-66
2024/02/25 00:18:57;;;;;;;2.90;1.10;;;;;;;;;;699264;28;1510;-65
2024/02/25 00:19:17;;;;;;;2.60;1.20;;;;;;;;;;697452;28;1021;-65
2024/02/25 00:19:38;;;;;;;2.63;1.20;;;;;;;;;;698257;28;1285;-65
2024/02/25 00:19:58;;;;;;;2.57;1.20;;;;;;;;;;701670;28;1241;-64
2024/02/25 00:20:18;;;;;;;2.65;1.20;;;;;;;;;;699829;28;1218;-67
2024/02/25 00:20:38;;;;;;;2.40;1.30;;;;;;;;;;701099;28;1373;-67
2024/02/25 00:20:59;;;;;;;2.33;1.20;;;;;;;;;;702543;28;1229;-65
2024/02/25 00:21:19;;;;;;;3.50;1.20;;;;;;;;;;699985;28;1399;-67
2024/02/25 00:21:39;;;;;;;3.50;1.30;;;;;;;;;;702007;28;4405;-66
2024/02/25 00:21:59;;;;;;;4.03;1.30;;;;;;;;;;698698;28;1309;-66
2024/02/25 00:22:20;;;;;;;2.88;1.30;;;;;;;;;;697986;28;1360;-66
2024/02/25 00:22:40;;;;;;;2.80;1.20;;;;;;;;;;697385;28;1439;-67
2024/02/25 00:23:00;;;;;;;2.60;1.10;;;;;;;;;;701042;28;1305;-67
2024/02/25 00:23:20;;;;;;;2.92;1.23;;;;;;;;;;700012;28;1384;-64
2024/02/25 00:23:41;;;;;;;2.20;1.10;;;;;;;;;;701266;28;1305;-65
2024/02/25 00:24:01;;;;;;;2.63;1.30;;;;;;;;;;704818;28;1565;-65
2024/02/25 00:24:22;;;;;;;2.85;1.20;;;;;;;;;;703405;27;4500;-64
2024/02/25 00:24:42;;;;;;;3.60;1.13;;;;;;;;;;701137;28;1246;-66
2024/02/25 00:25:02;;;;;;;3.00;1.20;;;;;;;;;;698546;28;1210;-66
2024/02/25 00:25:23;;;;;;;2.27;1.10;;;;;;;;;;697524;28;1272;-64
2024/02/25 00:25:44;;;;;;;3.20;1.30;;;;;;;;;;698384;28;1212;-66
2024/02/25 00:26:04;;;;;;;2.53;1.20;;;;;;;;;;698716;28;912;-64
2024/02/25 00:26:25;;;;;;;2.90;1.10;;;;;;;;;;694734;28;1088;-64
2024/02/25 00:26:45;;;;;;;3.85;1.38;;;;;;;;;;698936;28;1253;-64
2024/02/25 00:27:05;;;;;;;3.93;1.30;;;;;;;;;;698880;28;1238;-65
2024/02/25 00:27:25;;;;;;;3.23;1.27;;;;;;;;;;697077;28;4678;-64
2024/02/25 00:27:46;;;;;;;2.28;1.00;;;;;;;;;;698628;28;1293;-67
2024/02/25 00:28:06;;;;;;;2.13;1.00;;;;;;;;;;698965;28;1294;-66
2024/02/25 00:28:27;;;;;;;2.83;1.10;;;;;;;;;;698131;28;1099;-65
2024/02/25 00:28:47;;;;;;;2.50;1.20;;;;;;;;;;697016;28;1301;-64
2024/02/25 00:29:07;;;;;;;3.07;1.30;;;;;;;;;;697067;28;1312;-67
2024/02/25 00:29:28;;;;;;;3.28;1.25;;;;;;;;;;696065;28;1056;-65
2024/02/25 00:29:48;;;;;;;3.23;1.13;;;;;;;;;;695722;28;1085;-66
2024/02/25 00:30:09;;;;;;;2.78;1.20;;;;;;;;;;695119;28;1305;-65
2024/02/25 00:30:29;;;;;;;2.20;1.30;;;;;;;;;;694836;28;5166;-64
2024/02/25 00:30:49;;;;;;;2.63;1.10;;;;;;;;;;700108;28;1194;-64
2024/02/25 00:31:09;;;;;;;2.53;1.20;;;;;;;;;;699875;28;1194;-64
2024/02/25 00:31:30;;;;;;;2.73;1.20;;;;;;;;;;697431;28;1145;-66
2024/02/25 00:31:50;;;;;;;2.90;1.27;;;;;;;;;;699895;28;1234;-64
2024/02/25 00:32:12;;;;;;;2.53;1.33;;;;;;;;;;701395;28;1233;-66
2024/02/25 00:32:32;;;;;;;2.00;1.10;;;;;;;;;;698703;28;1524;-65
2024/02/25 00:32:52;;;;;;;2.20;1.20;;;;;;;;;;701655;28;1201;-66
2024/02/25 00:33:12;;;;;;;2.63;1.20;;;;;;;;;;702500;28;1221;-69
2024/02/25 00:33:33;;;;;;;2.58;1.13;;;;;;;;;;699287;28;4356;-68
2024/02/25 00:33:53;;;;;;;2.80;1.30;;;;;;;;;;701500;28;1147;-67
2024/02/25 00:34:14;;;;;;;2.53;1.20;;;;;;;;;;700383;28;1264;-66
2024/02/25 00:34:34;;;;;;;3.60;1.10;;;;;;;;;;705757;27;1153;-68
2024/02/25 00:34:54;;;;;;;4.23;1.20;;;;;;;;;;705161;27;1071;-67
2024/02/25 00:35:14;;;;;;;3.10;1.20;;;;;;;;;;703235;27;1320;-67
2024/02/25 00:35:35;;;;;;;3.07;1.20;;;;;;;;;;704545;27;1309;-67
2024/02/25 00:35:55;;;;;;;3.23;1.13;;;;;;;;;;704313;27;1114;-66
2024/02/25 00:36:16;;;;;;;2.88;1.30;;;;;;;;;;703767;27;1297;-66
2024/02/25 00:36:38;;;;;;;2.83;1.30;;;;;;;;;;704257;27;4340;-65
2024/02/25 00:36:58;;;;;;;2.80;1.10;;;;;;;;;;703780;27;1307;-68
2024/02/25 00:37:19;;;;;;;2.83;1.30;;;;;;;;;;700674;28;1221;-66
2024/02/25 00:37:41;;;;;;;2.08;1.08;;;;;;;;;;699995;28;1454;-65
2024/02/25 00:38:01;;;;;;;2.47;1.20;;;;;;;;;;701487;28;1384;-65
2024/02/25 00:38:21;;;;;;;3.00;1.10;;;;;;;;;;700064;28;1102;-66
2024/02/25 00:38:42;;;;;;;2.90;1.00;;;;;;;;;;703318;28;1979;-66
2024/02/25 00:39:03;;;;;;;2.07;1.10;;;;;;;;;;702243;27;1252;-66
2024/02/25 00:39:23;;;;;;;2.53;1.20;;;;;;;;;;703010;27;4503;-66
2024/02/25 00:39:44;;;;;;;2.42;1.23;;;;;;;;;;702400;28;1170;-65
2024/02/25 00:40:04;;;;;;;2.57;1.20;;;;;;;;;;701938;28;1376;-67
2024/02/25 00:40:25;;;;;;;3.08;1.10;;;;;;;;;;699490;28;1150;-66
2024/02/25 00:40:45;;;;;;;2.97;1.20;;;;;;;;;;701469;28;1402;-66
2024/02/25 00:41:07;;;;;;;2.63;1.20;;;;;;;;;;703421;28;1276;-66
2024/02/25 00:41:28;;;;;;;3.13;1.33;;;;;;;;;;700520;28;1075;-66
2024/02/25 00:41:51;;;;;;;2.93;1.30;;;;;;;;;;700095;28;1202;-66
2024/02/25 00:42:11;;;;;;;2.30;1.10;;;;;;;;;;699822;28;1245;-66
2024/02/25 00:42:32;;;;;;;2.70;1.10;;;;;;;;;;698725;28;4494;-66
2024/02/25 00:42:53;;;;;;;2.87;1.10;;;;;;;;;;702117;28;1209;-65
2024/02/25 00:43:13;;;;;;;3.05;1.10;;;;;;;;;;700894;28;1221;-65
2024/02/25 00:43:34;;;;;;;3.70;1.30;;;;;;;;;;700937;27;1348;-65
2024/02/25 00:43:54;;;;;;;2.67;1.20;;;;;;;;;;703559;27;1197;-66
2024/02/25 00:44:14;;;;;;;1.63;1.03;;;;;;;;;;704157;27;1194;-66
2024/02/25 00:44:36;;;;;;;2.35;1.10;;;;;;;;;;703260;28;3558;-67
2024/02/25 00:44:56;;;;;;;2.38;1.20;;;;;;;;;;705026;27;4996;-66
2024/02/25 00:45:17;;;;;;;2.33;1.17;;;;;;;;;;702583;28;1616;-67
2024/02/25 00:45:37;;;;;;;2.47;1.10;;;;;;;;;;703926;27;4380;-68
2024/02/25 00:45:57;;;;;;;2.27;1.23;;;;;;;;;;705799;27;802;-65
2024/02/25 00:46:17;;;;;;;2.75;0.98;;;;;;;;;;702433;27;1753;-65
2024/02/25 00:46:38;;;;;;;3.07;1.07;;;;;;;;;;706723;27;1229;-64
2024/02/25 00:46:58;;;;;;;2.20;1.00;;;;;;;;;;704605;27;1317;-66
2024/02/25 00:47:18;;;;;;;2.70;1.08;;;;;;;;;;702504;28;1435;-65
2024/02/25 00:47:39;;;;;;;2.73;1.03;;;;;;;;;;703551;28;1234;-65
2024/02/25 00:47:59;;;;;;;2.50;0.93;;;;;;;;;;704201;27;1155;-65
2024/02/25 00:48:19;;;;;;;1.97;1.00;;;;;;;;;;700496;27;4385;-65
2024/02/25 00:48:40;;;;;;;2.20;1.10;;;;;;;;;;702759;28;1307;-65
2024/02/25 00:49:00;;;;;;;2.65;1.10;;;;;;;;;;704606;27;1427;-66
2024/02/25 00:49:20;;;;;;;2.20;1.00;;;;;;;;;;702657;28;1956;-65
2024/02/25 00:49:41;;;;;;;2.90;1.10;;;;;;;;;;703509;27;1367;-67
2024/02/25 00:50:02;;;;;;;1.73;0.93;;;;;;;;;;704059;27;1696;-65
2024/02/25 00:50:22;;;;;;;2.20;1.02;;;;;;;;;;702761;27;2223;-66
2024/02/25 00:50:42;;;;;;;2.53;1.03;;;;;;;;;;703607;27;907;-65
2024/02/25 00:51:02;;;;;;;4.43;1.10;;;;;;;;;;704108;27;1367;-65
2024/02/25 00:51:23;;;;;;;2.80;1.10;;;;;;;;;;701988;27;4413;-65
2024/02/25 00:51:44;;;;;;;2.33;1.00;;;;;;;;;;706038;27;1217;-65
2024/02/25 00:52:04;;;;;;;2.50;1.00;;;;;;;;;;704040;28;5234;-65
2024/02/25 00:52:26;;;;;;;2.47;1.02;;;;;;;;;;701532;27;1054;-65
2024/02/25 00:52:46;;;;;;;2.55;1.10;;;;;;;;;;704586;27;904;-65
2024/02/25 00:53:06;;;;;;;3.05;1.10;;;;;;;;;;703452;27;1232;-65
2024/02/25 00:53:27;;;;;;;3.03;1.10;;;;;;;;;;703390;27;1907;-66
2024/02/25 00:53:47;;;;;;;2.73;1.10;;;;;;;;;;702945;27;1213;-64
2024/02/25 00:54:07;;;;;;;2.95;1.10;;;;;;;;;;705269;27;1304;-65
2024/02/25 00:54:27;;;;;;;2.47;1.10;;;;;;;;;;702067;28;4519;-66
2024/02/25 00:54:48;;;;;;;1.93;1.07;;;;;;;;;;703917;28;1226;-64
2024/02/25 00:55:08;;;;;;;2.25;1.17;;;;;;;;;;703484;27;1358;-64
2024/02/25 00:55:29;;;;;;;2.67;1.20;;;;;;;;;;701994;27;1872;-65
2024/02/25 00:55:49;;;;;;;2.67;1.15;;;;;;;;;;704645;27;1194;-65
2024/02/25 00:56:09;;;;;;;2.07;1.00;;;;;;;;;;704802;27;1286;-65
2024/02/25 00:56:29;;;;;;;2.73;1.10;;;;;;;;;;703381;27;2203;-64
2024/02/25 00:56:50;;;;;;;2.80;1.17;;;;;;;;;;704006;27;1221;-65
2024/02/25 00:57:10;;;;;;;3.17;1.30;;;;;;;;;;705928;27;1292;-66
2024/02/25 00:57:30;;;;;;;2.40;1.08;;;;;;;;;;701269;27;4522;-65
2024/02/25 00:57:51;;;;;;;2.07;1.00;;;;;;;;;;704420;27;1182;-65
2024/02/25 00:58:11;;;;;;;1.93;1.03;;;;;;;;;;701316;28;1284;-65
2024/02/25 00:58:31;;;;;;;2.05;1.00;;;;;;;;;;700510;28;2367;-65
2024/02/25 00:58:52;;;;;;;4.17;1.10;;;;;;;;;;698043;28;1918;-65
2024/02/25 00:59:12;;;;;;;2.97;1.20;;;;;;;;;;699156;28;1286;-65
2024/02/25 00:59:32;;;;;;;2.53;1.02;;;;;;;;;;695610;28;2249;-65
2024/02/25 00:59:52;;;;;;;2.80;1.20;;;;;;;;;;699328;28;1223;-65
2024/02/25 01:00:13;;;;;;;2.30;1.00;;;;;;;;;;701656;28;1250;-66
2024/02/25 01:00:34;;;;;;;2.17;1.00;;;;;;;;;;698757;28;4534;-67
2024/02/25 01:00:54;;;;;;;2.30;1.10;;;;;;;;;;704580;27;1150;-65
2024/02/25 01:01:14;;;;;;;3.13;1.17;;;;;;;;;;703727;28;1312;-65
2024/02/25 01:01:35;;;;;;;2.17;1.00;;;;;;;;;;701841;28;1269;-66
2024/02/25 01:01:55;;;;;;;2.92;1.02;;;;;;;;;;703002;28;1262;-66
2024/02/25 01:02:16;;;;;;;2.27;1.00;;;;;;;;;;700660;28;1972;-67
2024/02/25 01:02:36;;;;;;;2.33;1.00;;;;;;;;;;703158;28;1395;-67
2024/02/25 01:02:56;;;;;;;1.97;0.90;;;;;;;;;;700353;28;1337;-67
2024/02/25 01:03:17;;;;;;;1.90;1.00;;;;;;;;;;698848;28;1540;-66
2024/02/25 01:03:38;;;;;;;2.07;0.90;;;;;;;;;;700819;28;4518;-66
2024/02/25 01:03:59;;;;;;;2.30;0.90;;;;;;;;;;698412;28;1099;-68
2024/02/25 01:04:20;;;;;;;2.70;1.10;;;;;;;;;;698286;28;2518;-68
2024/02/25 01:04:41;;;;;;;2.10;0.90;;;;;;;;;;699819;28;1369;-69
2024/02/25 01:05:01;;;;;;;2.07;0.97;;;;;;;;;;700956;28;1384;-67
2024/02/25 01:05:23;;;;;;;1.87;0.93;;;;;;;;;;697961;28;1521;-68
2024/02/25 01:05:44;;;;;;;2.13;0.93;;;;;;;;;;698065;28;1238;-69
2024/02/25 01:06:04;;;;;;;2.20;0.90;;;;;;;;;;700679;28;1238;-67
2024/02/25 01:06:24;;;;;;;1.70;0.97;;;;;;;;;;697175;28;4427;-67
2024/02/25 01:06:46;;;;;;;1.83;1.00;;;;;;;;;;699673;28;1265;-67
2024/02/25 01:07:07;;;;;;;2.58;1.13;;;;;;;;;;698484;28;1257;-67
2024/02/25 01:07:27;;;;;;;3.03;1.10;;;;;;;;;;699642;28;1791;-66
2024/02/25 01:07:47;;;;;;;2.17;0.90;;;;;;;;;;701770;28;1268;-67
2024/02/25 01:08:08;;;;;;;1.93;1.00;;;;;;;;;;702873;28;1305;-64
2024/02/25 01:08:28;;;;;;;2.57;1.00;;;;;;;;;;702857;28;1472;-64
2024/02/25 01:08:48;;;;;;;2.38;1.00;;;;;;;;;;705253;27;1264;-65
2024/02/25 01:09:10;;;;;;;3.37;1.10;;;;;;;;;;705427;27;1257;-67
2024/02/25 01:09:30;;;;;;;3.33;1.02;;;;;;;;;;700990;28;4411;-66
2024/02/25 01:09:51;;;;;;;2.67;1.08;;;;;;;;;;704507;27;1245;-66
2024/02/25 01:10:11;;;;;;;2.28;1.00;;;;;;;;;;703157;27;1201;-67
2024/02/25 01:10:31;;;;;;;2.17;0.90;;;;;;;;;;699744;28;1131;-68
2024/02/25 01:10:52;;;;;;;2.13;1.00;;;;;;;;;;700700;28;1289;-68
2024/02/25 01:11:12;;;;;;;2.65;1.20;;;;;;;;;;701955;28;1269;-67
2024/02/25 01:11:33;;;;;;;2.80;1.20;;;;;;;;;;698735;28;1609;-66
2024/02/25 01:11:53;;;;;;;1.60;0.93;;;;;;;;;;701466;28;1162;-68
2024/02/25 01:12:14;;;;;;;2.33;0.90;;;;;;;;;;701366;27;1290;-68
2024/02/25 01:12:34;;;;;;;2.50;1.00;;;;;;;;;;700985;27;4952;-66
2024/02/25 01:12:54;;;;;;;2.33;1.10;;;;;;;;;;704991;27;1323;-68
2024/02/25 01:13:15;;;;;;;3.33;1.20;;;;;;;;;;700821;28;1541;-69
2024/02/25 01:13:35;;;;;;;3.43;1.17;;;;;;;;;;698338;28;1740;-66
2024/02/25 01:13:55;;;;;;;2.33;1.17;;;;;;;;;;700825;28;1352;-63
2024/02/25 01:14:16;;;;;;;1.27;0.80;;;;;;;;;;696728;28;1219;-68
2024/02/25 01:14:36;;;;;;;1.30;0.80;;;;;;;;;;695103;28;1359;-67
2024/02/25 01:14:57;;;;;;;1.80;0.90;;;;;;;;;;698218;28;1376;-68
2024/02/25 01:15:17;;;;;;;1.80;0.90;;;;;;;;;;698445;28;1905;-68
2024/02/25 01:15:37;;;;;;;1.42;0.90;;;;;;;;;;698161;28;4363;-67
2024/02/25 01:16:02;;;;;;;1.53;1.00;;;;;;;;;;700337;28;1238;-67
2024/02/25 01:16:22;;;;;;;2.00;1.02;;;;;;;;;;703068;28;1813;-67
2024/02/25 01:16:42;;;;;;;1.90;1.00;;;;;;;;;;703453;27;1506;-67
2024/02/25 01:17:03;;;;;;;2.03;1.00;;;;;;;;;;704732;27;1249;-66
2024/02/25 01:17:23;;;;;;;2.17;1.05;;;;;;;;;;702336;28;2139;-66
2024/02/25 01:17:43;;;;;;;2.10;1.00;;;;;;;;;;704414;27;1228;-66
2024/02/25 01:18:04;;;;;;;1.40;0.90;;;;;;;;;;702417;28;1352;-66
2024/02/25 01:18:24;;;;;;;1.60;0.95;;;;;;;;;;700109;28;4449;-66
2024/02/25 01:18:44;;;;;;;2.33;1.10;;;;;;;;;;701346;28;1971;-67
2024/02/25 01:19:04;;;;;;;2.20;1.10;;;;;;;;;;701000;28;1324;-68
2024/02/25 01:19:25;;;;;;;2.40;1.10;;;;;;;;;;697608;28;2272;-66
2024/02/25 01:19:45;;;;;;;2.77;1.10;;;;;;;;;;698256;28;1294;-65
2024/02/25 01:20:05;;;;;;;2.63;1.00;;;;;;;;;;701704;28;1233;-67
2024/02/25 01:20:26;;;;;;;2.40;0.90;;;;;;;;;;699487;28;1745;-65
2024/02/25 01:20:46;;;;;;;2.30;0.90;;;;;;;;;;701166;28;1380;-69
2024/02/25 01:21:06;;;;;;;2.30;0.97;;;;;;;;;;702123;28;999;-68
2024/02/25 01:21:27;;;;;;;2.50;1.03;;;;;;;;;;702081;28;4506;-67
2024/02/25 01:21:47;;;;;;;2.20;1.20;;;;;;;;;;703426;27;943;-67
2024/02/25 01:22:08;;;;;;;2.22;1.10;;;;;;;;;;703774;27;885;-70
2024/02/25 01:22:28;;;;;;;3.40;1.10;;;;;;;;;;702062;27;1820;-68
2024/02/25 01:22:48;;;;;;;2.90;1.03;;;;;;;;;;704696;27;892;-67
2024/02/25 01:23:09;;;;;;;2.33;0.90;;;;;;;;;;703928;27;1426;-68
2024/02/25 01:23:29;;;;;;;2.80;1.00;;;;;;;;;;703108;27;2206;-68
2024/02/25 01:23:49;;;;;;;2.60;1.00;;;;;;;;;;704333;27;1173;-67
2024/02/25 01:24:09;;;;;;;2.70;1.10;;;;;;;;;;704837;27;868;-67
2024/02/25 01:24:30;;;;;;;2.03;1.00;;;;;;;;;;703445;27;4271;-68
2024/02/25 01:24:50;;;;;;;1.60;0.90;;;;;;;;;;702893;28;919;-68
2024/02/25 01:25:13;;;;;;;2.10;1.17;;;;;;;;;;700136;28;1430;-66
2024/02/25 01:25:33;;;;;;;2.85;1.15;;;;;;;;;;697965;28;1747;-67
2024/02/25 01:25:53;;;;;;;2.63;1.10;;;;;;;;;;699058;28;877;-68
2024/02/25 01:26:14;;;;;;;2.53;1.03;;;;;;;;;;698566;28;872;-69
2024/02/25 01:26:40;;;;;;;2.50;1.13;;;;;;;;;;698540;28;954;-67
2024/02/25 01:27:01;;;;;;;2.33;1.05;;;;;;;;;;700335;28;889;-67
2024/02/25 01:27:21;;;;;;;2.93;1.10;;;;;;;;;;699687;27;4511;-66
2024/02/25 01:27:41;;;;;;;2.60;1.10;;;;;;;;;;704275;27;813;-66
2024/02/25 01:28:02;;;;;;;2.73;1.03;;;;;;;;;;704816;27;840;-67
2024/02/25 01:28:22;;;;;;;1.60;0.80;;;;;;;;;;703216;27;1913;-64
2024/02/25 01:28:42;;;;;;;1.77;0.90;;;;;;;;;;704621;27;808;-68
2024/02/25 01:29:04;;;;;;;1.77;1.00;;;;;;;;;;704576;27;903;-65
2024/02/25 01:29:24;;;;;;;3.88;1.30;;;;;;;;;;701967;27;2097;-66
2024/02/25 01:29:44;;;;;;;3.00;1.30;;;;;;;;;;701520;28;1107;-65
2024/02/25 01:30:05;;;;;;;2.92;1.10;;;;;;;;;;702509;28;1141;-67
2024/02/25 01:30:25;;;;;;;2.42;1.10;;;;;;;;;;700223;28;4297;-66
2024/02/25 01:30:47;;;;;;;2.20;1.07;;;;;;;;;;702736;28;921;-67
2024/02/25 01:31:07;;;;;;;1.75;0.95;;;;;;;;;;700851;28;1381;-66
2024/02/25 01:31:27;;;;;;;2.10;1.10;;;;;;;;;;700094;28;1089;-66
2024/02/25 01:31:52;;;;;;;2.43;1.20;;;;;;;;;;704672;27;849;-67
2024/02/25 01:32:16;;;;;;;2.85;1.20;;;;;;;;;;704840;27;821;-67
2024/02/25 01:32:36;;;;;;;2.40;1.00;;;;;;;;;;703069;27;1712;-66
2024/02/25 01:32:56;;;;;;;1.70;1.00;;;;;;;;;;704289;27;797;-66
2024/02/25 01:33:17;;;;;;;1.80;1.00;;;;;;;;;;703243;27;885;-67
2024/02/25 01:33:37;;;;;;;2.22;1.10;;;;;;;;;;703013;27;4416;-66
2024/02/25 01:33:57;;;;;;;1.87;1.00;;;;;;;;;;703081;27;900;-68
2024/02/25 01:34:19;;;;;;;2.20;1.00;;;;;;;;;;703951;27;1517;-68
2024/02/25 01:34:40;;;;;;;2.40;1.02;;;;;;;;;;704786;27;958;-66
2024/02/25 01:35:00;;;;;;;2.35;1.08;;;;;;;;;;705616;27;864;-66
2024/02/25 01:35:20;;;;;;;2.53;1.10;;;;;;;;;;702926;27;2490;-66
2024/02/25 01:35:41;;;;;;;3.00;1.20;;;;;;;;;;705096;27;821;-65
2024/02/25 01:36:02;;;;;;;2.22;1.08;;;;;;;;;;699016;28;836;-65
2024/02/25 01:36:22;;;;;;;2.20;1.00;;;;;;;;;;700398;28;4365;-66
2024/02/25 01:36:43;;;;;;;2.40;1.00;;;;;;;;;;701810;28;979;-66
2024/02/25 01:37:04;;;;;;;2.15;1.05;;;;;;;;;;698985;28;809;-65
2024/02/25 01:37:25;;;;;;;1.80;1.05;;;;;;;;;;696667;28;1448;-65
2024/02/25 01:37:45;;;;;;;1.90;1.10;;;;;;;;;;699468;28;781;-65
2024/02/25 01:38:05;;;;;;;2.10;1.10;;;;;;;;;;701744;28;1036;-65
2024/02/25 01:38:25;;;;;;;2.80;1.17;;;;;;;;;;699301;28;1451;-66
2024/02/25 01:38:46;;;;;;;2.93;1.20;;;;;;;;;;702464;28;1999;-66
2024/02/25 01:39:06;;;;;;;2.70;1.30;;;;;;;;;;705643;27;1271;-67
2024/02/25 01:39:26;;;;;;;3.13;1.10;;;;;;;;;;699837;28;4361;-66
2024/02/25 01:39:47;;;;;;;2.27;1.00;;;;;;;;;;701116;28;892;-67
2024/02/25 01:40:08;;;;;;;1.90;1.10;;;;;;;;;;702351;28;1041;-67
2024/02/25 01:40:28;;;;;;;2.92;1.15;;;;;;;;;;700259;28;1338;-66
2024/02/25 01:40:48;;;;;;;3.27;1.10;;;;;;;;;;699509;28;3865;-67
2024/02/25 01:41:08;;;;;;;2.70;1.00;;;;;;;;;;702422;28;835;-66
2024/02/25 01:41:29;;;;;;;2.00;1.00;;;;;;;;;;698990;28;1454;-66
2024/02/25 01:41:50;;;;;;;2.33;0.90;;;;;;;;;;702915;28;760;-65
2024/02/25 01:42:10;;;;;;;1.90;0.90;;;;;;;;;;698694;28;840;-69
2024/02/25 01:42:31;;;;;;;2.37;1.00;;;;;;;;;;697137;28;4724;-69
2024/02/25 01:43:08;;;;;;;3.57;1.10;;;;;;;;;;700506;28;762;-68
2024/02/25 01:43:28;;;;;;;1.80;1.10;;;;;;;;;;698403;28;2344;-67
2024/02/25 01:43:48;;;;;;;1.80;1.00;;;;;;;;;;700891;28;872;-69
2024/02/25 01:44:08;;;;;;;1.80;1.03;;;;;;;;;;703155;27;919;-70
2024/02/25 01:44:29;;;;;;;2.07;1.10;;;;;;;;;;703160;27;1468;-65
2024/02/25 01:44:57;;;;;;;2.27;1.00;;;;;;;;;;701519;28;934;-66
2024/02/25 01:45:19;;;;;;;2.13;1.20;;;;;;;;;;698115;28;2324;-65
2024/02/25 01:45:39;;;;;;;2.10;1.00;;;;;;;;;;701313;28;4488;-68
2024/02/25 01:45:59;;;;;;;2.07;1.03;;;;;;;;;;701974;28;888;-68
2024/02/25 01:46:19;;;;;;;2.60;1.20;;;;;;;;;;700053;28;2354;-66
2024/02/25 01:46:45;;;;;;;3.30;1.30;;;;;;;;;;701549;28;908;-67
2024/02/25 01:47:06;;;;;;;2.28;1.15;;;;;;;;;;705419;27;972;-67
2024/02/25 01:47:29;;;;;;;2.38;1.00;;;;;;;;;;701823;27;1568;-67
2024/02/25 01:47:49;;;;;;;3.00;1.08;;;;;;;;;;703104;27;856;-66
2024/02/25 01:48:10;;;;;;;2.70;1.10;;;;;;;;;;704227;27;851;-65
2024/02/25 01:48:32;;;;;;;2.42;1.15;;;;;;;;;;702185;27;4268;-67
2024/02/25 01:48:53;;;;;;;2.65;1.10;;;;;;;;;;706265;27;824;-64
2024/02/25 01:49:14;;;;;;;2.92;1.20;;;;;;;;;;705965;27;971;-67
2024/02/25 01:49:34;;;;;;;2.10;1.05;;;;;;;;;;704228;27;1202;-65
2024/02/25 01:49:55;;;;;;;3.00;1.10;;;;;;;;;;706124;27;962;-67
2024/02/25 01:50:17;;;;;;;2.40;1.00;;;;;;;;;;703981;28;1037;-65
2024/02/25 01:50:38;;;;;;;2.10;1.00;;;;;;;;;;702675;27;1819;-65
2024/02/25 01:50:58;;;;;;;2.67;1.10;;;;;;;;;;703417;28;820;-67
2024/02/25 01:51:19;;;;;;;1.70;1.00;;;;;;;;;;704770;27;1756;-66
2024/02/25 01:51:40;;;;;;;2.20;1.20;;;;;;;;;;704859;27;4667;-66
2024/02/25 01:52:00;;;;;;;2.42;1.10;;;;;;;;;;704592;27;943;-66
2024/02/25 01:52:21;;;;;;;2.53;1.10;;;;;;;;;;702710;27;3044;-67
2024/02/25 01:52:42;;;;;;;2.25;1.20;;;;;;;;;;705822;27;991;-66
2024/02/25 01:53:02;;;;;;;2.83;1.20;;;;;;;;;;705148;27;772;-65
2024/02/25 01:53:22;;;;;;;2.70;1.20;;;;;;;;;;704720;27;900;-67
2024/02/25 01:53:44;;;;;;;2.40;1.20;;;;;;;;;;705178;27;864;-66
2024/02/25 01:54:04;;;;;;;2.13;1.08;;;;;;;;;;702437;28;962;-66
2024/02/25 01:54:25;;;;;;;2.65;1.08;;;;;;;;;;697020;28;4346;-68
2024/02/25 01:54:45;;;;;;;1.83;1.00;;;;;;;;;;700102;28;873;-68
2024/02/25 01:55:06;;;;;;;2.40;1.13;;;;;;;;;;696352;28;874;-67
2024/02/25 01:55:29;;;;;;;2.73;1.30;;;;;;;;;;696170;28;1587;-68
2024/02/25 01:55:51;;;;;;;2.22;1.20;;;;;;;;;;692211;28;1386;-67
2024/02/25 01:56:12;;;;;;;2.03;1.17;;;;;;;;;;694780;28;817;-67
2024/02/25 01:56:35;;;;;;;3.63;1.20;;;;;;;;;;694431;28;1879;-67
2024/02/25 01:56:56;;;;;;;2.28;1.20;;;;;;;;;;693567;28;2212;-67
2024/02/25 01:57:16;;;;;;;3.13;1.10;;;;;;;;;;694743;28;802;-68
2024/02/25 01:57:36;;;;;;;2.27;1.00;;;;;;;;;;694368;28;4666;-68
2024/02/25 01:57:58;;;;;;;2.60;1.20;;;;;;;;;;699799;28;971;-68
2024/02/25 01:58:19;;;;;;;2.63;1.10;;;;;;;;;;699243;28;1760;-66
2024/02/25 01:58:40;;;;;;;3.10;1.20;;;;;;;;;;700070;28;1951;-68
2024/02/25 01:59:01;;;;;;;2.30;1.20;;;;;;;;;;704251;27;896;-67
2024/02/25 01:59:21;;;;;;;1.73;1.00;;;;;;;;;;701345;27;1819;-68
2024/02/25 01:59:42;;;;;;;2.35;1.00;;;;;;;;;;704764;27;919;-63
2024/02/25 02:00:03;;;;;;;2.60;1.00;;;;;;;;;;703500;28;966;-67
2024/02/25 02:00:25;;;;;;;2.30;1.05;;;;;;;;;;701994;27;4359;-65
2024/02/25 02:00:47;;;;;;;2.53;1.00;;;;;;;;;;700071;28;786;-66
2024/02/25 02:01:09;;;;;;;2.20;1.00;;;;;;;;;;700149;28;836;-69
2024/02/25 02:01:32;;;;;;;2.20;1.00;;;;;;;;;;698437;28;1537;-67
2024/02/25 02:01:54;;;;;;;2.47;1.02;;;;;;;;;;699434;28;900;-65
2024/02/25 02:02:15;;;;;;;2.30;1.00;;;;;;;;;;702539;28;991;-67
2024/02/25 02:02:35;;;;;;;2.47;1.07;;;;;;;;;;700112;28;1801;-65
2024/02/25 02:02:55;;;;;;;2.13;1.10;;;;;;;;;;701940;28;986;-68
2024/02/25 02:03:16;;;;;;;2.10;1.10;;;;;;;;;;699752;28;912;-67
2024/02/25 02:03:36;;;;;;;2.75;1.20;;;;;;;;;;699036;28;4747;-67
2024/02/25 02:03:57;;;;;;;2.50;1.30;;;;;;;;;;700877;28;864;-68
2024/02/25 02:04:17;;;;;;;2.42;1.10;;;;;;;;;;701586;28;900;-66
2024/02/25 02:04:37;;;;;;;2.63;1.15;;;;;;;;;;698665;28;1539;-65
2024/02/25 02:04:58;;;;;;;3.37;1.50;;;;;;;;;;701457;28;885;-67
2024/02/25 02:05:18;;;;;;;3.37;1.10;;;;;;;;;;701824;27;1130;-66
2024/02/25 02:05:39;;;;;;;1.87;0.93;;;;;;;;;;704070;27;1393;-65
2024/02/25 02:06:00;;;;;;;1.77;0.95;;;;;;;;;;704777;27;932;-65
2024/02/25 02:06:20;;;;;;;2.30;1.10;;;;;;;;;;703936;27;4514;-67
2024/02/25 02:06:40;;;;;;;3.13;1.17;;;;;;;;;;704335;27;915;-66
2024/02/25 02:07:02;;;;;;;3.83;1.20;;;;;;;;;;704961;27;797;-68
2024/02/25 02:07:22;;;;;;;2.65;1.00;;;;;;;;;;703184;27;1538;-65
2024/02/25 02:07:47;;;;;;;3.53;1.07;;;;;;;;;;705023;27;994;-67
2024/02/25 02:08:07;;;;;;;2.30;1.20;;;;;;;;;;704578;27;1014;-66